sensor_id;sensor_type;location;lat;lon;timestamp;pressure;altitude;pressure_sealevel;temperature;humidity
74936;BME280;63501;55.570;37.488;2022-12-01T00:00:59;101730.53;;;-13.30;81.80
74936;BME280;63501;55.570;37.488;2022-12-01T00:03:25;101733.19;;;-13.30;81.39
74936;BME280;63501;55.570;37.488;2022-12-01T00:06:02;101729.88;;;-13.32;81.77
74936;BME280;63501;55.570;37.488;2022-12-01T00:08:29;101734.56;;;-13.34;81.05
74936;BME280;63501;55.570;37.488;2022-12-01T00:10:55;101740.22;;;-13.37;81.42
74936;BME280;63501;55.570;37.488;2022-12-01T00:13:21;101726.28;;;-13.39;81.22
74936;BME280;63501;55.570;37.488;2022-12-01T00:15:46;101720.31;;;-13.41;80.64
74936;BME280;63501;55.570;37.488;2022-12-01T00:18:12;101720.84;;;-13.46;80.94
74936;BME280;63501;55.570;37.488;2022-12-01T00:20:37;101718.72;;;-13.50;81.56
74936;BME280;63501;55.570;37.488;2022-12-01T00:23:04;101715.41;;;-13.52;80.96
74936;BME280;63501;55.570;37.488;2022-12-01T00:25:30;101713.75;;;-13.53;81.28
74936;BME280;63501;55.570;37.488;2022-12-01T00:27:56;101714.94;;;-13.56;81.34
74936;BME280;63501;55.570;37.488;2022-12-01T00:30:22;101717.78;;;-13.57;81.74
74936;BME280;63501;55.570;37.488;2022-12-01T00:32:48;101721.44;;;-13.58;80.99
74936;BME280;63501;55.570;37.488;2022-12-01T00:35:14;101719.31;;;-13.63;80.71
74936;BME280;63501;55.570;37.488;2022-12-01T00:37:41;101717.81;;;-13.66;80.70
74936;BME280;63501;55.570;37.488;2022-12-01T00:40:07;101725.81;;;-13.66;81.40
74936;BME280;63501;55.570;37.488;2022-12-01T00:42:33;101718.84;;;-13.67;81.38
74936;BME280;63501;55.570;37.488;2022-12-01T00:44:59;101719.19;;;-13.70;80.73
74936;BME280;63501;55.570;37.488;2022-12-01T00:47:25;101711.38;;;-13.71;80.71
74936;BME280;63501;55.570;37.488;2022-12-01T00:49:50;101715.06;;;-13.72;80.94
74936;BME280;63501;55.570;37.488;2022-12-01T00:52:17;101731.84;;;-13.72;80.98
74936;BME280;63501;55.570;37.488;2022-12-01T00:54:43;101726.84;;;-13.75;81.26
74936;BME280;63501;55.570;37.488;2022-12-01T00:57:09;101722.53;;;-13.76;81.06
74936;BME280;63501;55.570;37.488;2022-12-01T00:59:35;101716.59;;;-13.78;81.09
74936;BME280;63501;55.570;37.488;2022-12-01T01:02:05;101719.44;;;-13.79;80.53
74936;BME280;63501;55.570;37.488;2022-12-01T01:04:32;101722.25;;;-13.81;80.62
74936;BME280;63501;55.570;37.488;2022-12-01T01:06:58;101723.25;;;-13.82;81.44
74936;BME280;63501;55.570;37.488;2022-12-01T01:09:23;101723.25;;;-13.82;81.08
74936;BME280;63501;55.570;37.488;2022-12-01T01:11:51;101722.25;;;-13.81;80.82
74936;BME280;63501;55.570;37.488;2022-12-01T01:14:16;101718.94;;;-13.83;80.54
74936;BME280;63501;55.570;37.488;2022-12-01T01:16:42;101723.44;;;-13.83;81.03
74936;BME280;63501;55.570;37.488;2022-12-01T01:19:08;101722.44;;;-13.82;81.31
74936;BME280;63501;55.570;37.488;2022-12-01T01:21:33;101721.59;;;-13.83;80.72
74936;BME280;63501;55.570;37.488;2022-12-01T01:23:59;101720.97;;;-13.85;80.94
74936;BME280;63501;55.570;37.488;2022-12-01T01:26:29;101719.94;;;-13.84;81.35
74936;BME280;63501;55.570;37.488;2022-12-01T01:28:58;101715.78;;;-13.87;80.80
74936;BME280;63501;55.570;37.488;2022-12-01T01:31:25;101718.31;;;-13.85;81.19
74936;BME280;63501;55.570;37.488;2022-12-01T01:33:51;101712.78;;;-13.83;80.94
74936;BME280;63501;55.570;37.488;2022-12-01T01:36:17;101706.16;;;-13.88;80.12
74936;BME280;63501;55.570;37.488;2022-12-01T01:38:43;101713.13;;;-13.87;80.79
74936;BME280;63501;55.570;37.488;2022-12-01T01:41:10;101711.31;;;-13.86;81.32
74936;BME280;63501;55.570;37.488;2022-12-01T01:46:21;101711.97;;;-13.84;79.84
74936;BME280;63501;55.570;37.488;2022-12-01T01:48:49;101709.94;;;-13.82;80.95
74936;BME280;63501;55.570;37.488;2022-12-01T01:51:20;101695.50;;;-13.79;81.12
74936;BME280;63501;55.570;37.488;2022-12-01T01:53:47;101695.94;;;-13.76;81.49
74936;BME280;63501;55.570;37.488;2022-12-01T01:56:13;101694.13;;;-13.75;80.80
74936;BME280;63501;55.570;37.488;2022-12-01T01:58:39;101689.63;;;-13.75;81.23
74936;BME280;63501;55.570;37.488;2022-12-01T02:01:06;101705.25;;;-13.72;81.34
74936;BME280;63501;55.570;37.488;2022-12-01T02:03:32;101699.91;;;-13.72;80.76
74936;BME280;63501;55.570;37.488;2022-12-01T02:05:58;101693.78;;;-13.72;80.75
74936;BME280;63501;55.570;37.488;2022-12-01T02:08:24;101703.59;;;-13.73;80.80
74936;BME280;63501;55.570;37.488;2022-12-01T02:15:57;101705.41;;;-13.73;79.96
74936;BME280;63501;55.570;37.488;2022-12-01T02:18:36;101703.22;;;-13.70;80.64
74936;BME280;63501;55.570;37.488;2022-12-01T02:27:01;101702.88;;;-13.67;80.27
74936;BME280;63501;55.570;37.488;2022-12-01T02:37:01;101702.81;;;-13.58;80.08
74936;BME280;63501;55.570;37.488;2022-12-01T02:39:37;101705.47;;;-13.58;80.52
74936;BME280;63501;55.570;37.488;2022-12-01T02:48:04;101694.38;;;-13.62;80.19
74936;BME280;63501;55.570;37.488;2022-12-01T02:50:34;101694.81;;;-13.58;79.58
74936;BME280;63501;55.570;37.488;2022-12-01T02:53:03;101697.34;;;-13.57;80.42
74936;BME280;63501;55.570;37.488;2022-12-01T02:55:30;101699.16;;;-13.57;80.48
74936;BME280;63501;55.570;37.488;2022-12-01T02:57:56;101703.09;;;-13.53;80.24
74936;BME280;63501;55.570;37.488;2022-12-01T03:00:22;101685.16;;;-13.51;80.09
74936;BME280;63501;55.570;37.488;2022-12-01T03:05:39;101684.78;;;-13.48;80.22
74936;BME280;63501;55.570;37.488;2022-12-01T03:08:45;101677.91;;;-13.43;80.26
74936;BME280;63501;55.570;37.488;2022-12-01T03:11:18;101688.22;;;-13.40;80.40
74936;BME280;63501;55.570;37.488;2022-12-01T03:14:34;101695.53;;;-13.42;80.21
74936;BME280;63501;55.570;37.488;2022-12-01T03:16:52;101693.88;;;-13.43;79.64
74936;BME280;63501;55.570;37.488;2022-12-01T03:19:39;101691.03;;;-13.41;80.49
74936;BME280;63501;55.570;37.488;2022-12-01T03:24:35;101689.03;;;-13.39;79.92
74936;BME280;63501;55.570;37.488;2022-12-01T03:27:06;101696.19;;;-13.40;80.05
74936;BME280;63501;55.570;37.488;2022-12-01T03:29:40;101698.03;;;-13.40;80.55
74936;BME280;63501;55.570;37.488;2022-12-01T03:32:27;101692.88;;;-13.42;79.99
74936;BME280;63501;55.570;37.488;2022-12-01T03:34:58;101688.09;;;-13.46;80.47
74936;BME280;63501;55.570;37.488;2022-12-01T03:37:40;101695.72;;;-13.43;80.24
74936;BME280;63501;55.570;37.488;2022-12-01T03:40:10;101697.38;;;-13.42;79.64
74936;BME280;63501;55.570;37.488;2022-12-01T03:42:42;101700.84;;;-13.42;79.87
74936;BME280;63501;55.570;37.488;2022-12-01T03:45:16;101683.41;;;-13.44;79.71
74936;BME280;63501;55.570;37.488;2022-12-01T03:47:44;101687.53;;;-13.42;80.35
74936;BME280;63501;55.570;37.488;2022-12-01T03:50:10;101693.06;;;-13.43;78.97
74936;BME280;63501;55.570;37.488;2022-12-01T03:53:09;101693.06;;;-13.43;79.75
74936;BME280;63501;55.570;37.488;2022-12-01T03:55:40;101685.44;;;-13.46;78.82
74936;BME280;63501;55.570;37.488;2022-12-01T03:58:30;101686.44;;;-13.47;78.95
74936;BME280;63501;55.570;37.488;2022-12-01T04:01:01;101692.94;;;-13.50;79.20
74936;BME280;63501;55.570;37.488;2022-12-01T04:03:27;101694.59;;;-13.49;80.00
74936;BME280;63501;55.570;37.488;2022-12-01T04:05:52;101696.25;;;-13.48;79.05
74936;BME280;63501;55.570;37.488;2022-12-01T04:08:18;101694.41;;;-13.47;79.71
74936;BME280;63501;55.570;37.488;2022-12-01T04:10:44;101692.41;;;-13.45;78.96
74936;BME280;63501;55.570;37.488;2022-12-01T04:13:10;101691.59;;;-13.46;79.24
74936;BME280;63501;55.570;37.488;2022-12-01T04:15:51;101690.41;;;-13.43;79.15
74936;BME280;63501;55.570;37.488;2022-12-01T04:18:17;101691.88;;;-13.41;79.54
74936;BME280;63501;55.570;37.488;2022-12-01T04:20:47;101692.72;;;-13.40;79.11
74936;BME280;63501;55.570;37.488;2022-12-01T04:23:13;101694.16;;;-13.38;79.10
74936;BME280;63501;55.570;37.488;2022-12-01T04:26:00;101683.34;;;-13.36;78.69
74936;BME280;63501;55.570;37.488;2022-12-01T04:28:26;101685.66;;;-13.33;79.31
74936;BME280;63501;55.570;37.488;2022-12-01T04:30:52;101691.47;;;-13.29;79.51
74936;BME280;63501;55.570;37.488;2022-12-01T04:33:18;101694.56;;;-13.26;79.67
74936;BME280;63501;55.570;37.488;2022-12-01T04:35:43;101692.56;;;-13.24;78.68
74936;BME280;63501;55.570;37.488;2022-12-01T04:38:09;101691.38;;;-13.21;79.71
74936;BME280;63501;55.570;37.488;2022-12-01T04:40:37;101688.34;;;-13.18;78.90
74936;BME280;63501;55.570;37.488;2022-12-01T04:43:03;101693.47;;;-13.17;79.65
74936;BME280;63501;55.570;37.488;2022-12-01T04:45:28;101700.25;;;-13.14;78.96
74936;BME280;63501;55.570;37.488;2022-12-01T04:47:54;101699.25;;;-13.13;79.46
74936;BME280;63501;55.570;37.488;2022-12-01T04:50:20;101697.25;;;-13.11;78.74
74936;BME280;63501;55.570;37.488;2022-12-01T04:52:46;101701.38;;;-13.09;79.63
74936;BME280;63501;55.570;37.488;2022-12-01T04:55:11;101702.66;;;-13.04;78.90
74936;BME280;63501;55.570;37.488;2022-12-01T04:57:39;101701.84;;;-13.05;78.54
74936;BME280;63501;55.570;37.488;2022-12-01T05:00:07;101700.00;;;-13.04;78.57
74936;BME280;63501;55.570;37.488;2022-12-01T05:02:38;101695.50;;;-13.04;78.42
74936;BME280;63501;55.570;37.488;2022-12-01T05:05:10;101689.53;;;-13.06;79.77
74936;BME280;63501;55.570;37.488;2022-12-01T05:07:37;101700.47;;;-13.01;79.10
74936;BME280;63501;55.570;37.488;2022-12-01T05:10:03;101702.31;;;-13.01;79.21
74936;BME280;63501;55.570;37.488;2022-12-01T05:12:29;101693.47;;;-13.02;78.84
74936;BME280;63501;55.570;37.488;2022-12-01T05:14:54;101703.13;;;-13.01;79.89
74936;BME280;63501;55.570;37.488;2022-12-01T05:17:20;101703.78;;;-12.99;79.82
74936;BME280;63501;55.570;37.488;2022-12-01T05:19:45;101705.44;;;-12.98;79.36
74936;BME280;63501;55.570;37.488;2022-12-01T05:22:30;101699.28;;;-12.98;79.35
74936;BME280;63501;55.570;37.488;2022-12-01T05:24:55;101709.75;;;-12.97;79.47
74936;BME280;63501;55.570;37.488;2022-12-01T05:27:21;101711.03;;;-12.93;79.12
74936;BME280;63501;55.570;37.488;2022-12-01T05:29:46;101705.53;;;-12.91;79.73
74936;BME280;63501;55.570;37.488;2022-12-01T05:32:12;101706.34;;;-12.91;79.22
74936;BME280;63501;55.570;37.488;2022-12-01T05:34:37;101693.88;;;-12.90;80.15
74936;BME280;63501;55.570;37.488;2022-12-01T05:37:03;101698.84;;;-12.87;79.26
74936;BME280;63501;55.570;37.488;2022-12-01T05:39:28;101693.31;;;-12.86;79.60
74936;BME280;63501;55.570;37.488;2022-12-01T05:41:54;101695.81;;;-12.84;79.11
74936;BME280;63501;55.570;37.488;2022-12-01T05:44:19;101700.75;;;-12.81;80.08
74936;BME280;63501;55.570;37.488;2022-12-01T05:46:45;101701.44;;;-12.79;79.80
74936;BME280;63501;55.570;37.488;2022-12-01T05:49:10;101708.41;;;-12.78;79.79
74936;BME280;63501;55.570;37.488;2022-12-01T05:51:36;101715.00;;;-12.74;79.30
74936;BME280;63501;55.570;37.488;2022-12-01T05:54:02;101710.16;;;-12.70;79.70
74936;BME280;63501;55.570;37.488;2022-12-01T05:56:27;101707.47;;;-12.70;79.82
74936;BME280;63501;55.570;37.488;2022-12-01T05:58:53;101723.28;;;-12.69;79.18
74936;BME280;63501;55.570;37.488;2022-12-01T06:01:18;101720.44;;;-12.67;79.20
74936;BME280;63501;55.570;37.488;2022-12-01T06:03:44;101734.59;;;-12.67;79.36
74936;BME280;63501;55.570;37.488;2022-12-01T06:06:09;101729.25;;;-12.67;79.35
74936;BME280;63501;55.570;37.488;2022-12-01T06:08:35;101731.19;;;-12.61;78.72
74936;BME280;63501;55.570;37.488;2022-12-01T06:11:01;101738.19;;;-12.60;79.05
74936;BME280;63501;55.570;37.488;2022-12-01T06:13:26;101740.66;;;-12.58;78.93
74936;BME280;63501;55.570;37.488;2022-12-01T06:15:59;101729.53;;;-12.62;80.00
74936;BME280;63501;55.570;37.488;2022-12-01T06:18:28;101729.53;;;-12.62;79.53
74936;BME280;63501;55.570;37.488;2022-12-01T06:20:54;101728.00;;;-12.56;79.94
74936;BME280;63501;55.570;37.488;2022-12-01T06:23:20;101729.25;;;-12.52;79.96
74936;BME280;63501;55.570;37.488;2022-12-01T06:25:45;101732.66;;;-12.43;80.00
74936;BME280;63501;55.570;37.488;2022-12-01T06:28:11;101738.28;;;-12.38;80.02
74936;BME280;63501;55.570;37.488;2022-12-01T06:30:36;101740.19;;;-12.32;79.88
74936;BME280;63501;55.570;37.488;2022-12-01T06:33:02;101727.78;;;-12.25;79.94
74936;BME280;63501;55.570;37.488;2022-12-01T06:35:27;101724.56;;;-12.20;79.63
74936;BME280;63501;55.570;37.488;2022-12-01T06:37:53;101729.16;;;-12.14;78.97
74936;BME280;63501;55.570;37.488;2022-12-01T06:40:19;101731.88;;;-12.08;79.35
74936;BME280;63501;55.570;37.488;2022-12-01T06:42:45;101740.34;;;-12.04;78.82
74936;BME280;63501;55.570;37.488;2022-12-01T06:45:10;101733.44;;;-11.98;78.37
74936;BME280;63501;55.570;37.488;2022-12-01T06:47:36;101723.25;;;-11.95;79.45
74936;BME280;63501;55.570;37.488;2022-12-01T06:50:02;101721.66;;;-11.89;78.95
74936;BME280;63501;55.570;37.488;2022-12-01T06:52:29;101725.22;;;-11.82;78.02
74936;BME280;63501;55.570;37.488;2022-12-01T06:54:55;101715.41;;;-11.75;77.97
74936;BME280;63501;55.570;37.488;2022-12-01T06:57:20;101730.31;;;-11.66;78.62
74936;BME280;63501;55.570;37.488;2022-12-01T06:59:46;101731.66;;;-11.55;78.50
74936;BME280;63501;55.570;37.488;2022-12-01T07:02:11;101734.13;;;-11.54;77.32
74936;BME280;63501;55.570;37.488;2022-12-01T07:04:38;101727.91;;;-11.61;77.64
74936;BME280;63501;55.570;37.488;2022-12-01T07:07:04;101729.34;;;-11.58;78.90
74936;BME280;63501;55.570;37.488;2022-12-01T07:09:29;101724.91;;;-11.51;78.27
74936;BME280;63501;55.570;37.488;2022-12-01T07:11:55;101723.97;;;-11.43;78.57
74936;BME280;63501;55.570;37.488;2022-12-01T07:14:25;101723.81;;;-11.35;78.21
74936;BME280;63501;55.570;37.488;2022-12-01T07:16:51;101723.31;;;-11.24;77.89
74936;BME280;63501;55.570;37.488;2022-12-01T07:19:17;101725.03;;;-11.16;79.01
74936;BME280;63501;55.570;37.488;2022-12-01T07:21:42;101725.34;;;-11.05;77.80
74936;BME280;63501;55.570;37.488;2022-12-01T07:24:08;101711.25;;;-10.92;77.46
74936;BME280;63501;55.570;37.488;2022-12-01T07:26:34;101714.66;;;-10.77;76.69
74936;BME280;63501;55.570;37.488;2022-12-01T07:28:59;101712.88;;;-10.63;77.45
74936;BME280;63501;55.570;37.488;2022-12-01T07:31:25;101713.59;;;-10.48;77.00
74936;BME280;63501;55.570;37.488;2022-12-01T07:33:51;101709.56;;;-10.30;76.26
74936;BME280;63501;55.570;37.488;2022-12-01T07:36:17;101708.19;;;-10.13;76.45
74936;BME280;63501;55.570;37.488;2022-12-01T07:38:42;101710.09;;;-9.94;76.88
74936;BME280;63501;55.570;37.488;2022-12-01T07:41:10;101701.91;;;-9.86;76.39
74936;BME280;63501;55.570;37.488;2022-12-01T07:43:37;101708.09;;;-9.78;76.59
74936;BME280;63501;55.570;37.488;2022-12-01T07:46:24;101706.44;;;-9.79;76.34
74936;BME280;63501;55.570;37.488;2022-12-01T07:48:51;101710.78;;;-9.72;75.22
74936;BME280;63501;55.570;37.488;2022-12-01T07:51:17;101709.16;;;-9.66;74.98
74936;BME280;63501;55.570;37.488;2022-12-01T07:53:43;101711.84;;;-9.60;75.08
74936;BME280;63501;55.570;37.488;2022-12-01T07:56:10;101714.34;;;-9.45;75.93
74936;BME280;63501;55.570;37.488;2022-12-01T07:58:36;101705.53;;;-9.25;75.57
74936;BME280;63501;55.570;37.488;2022-12-01T08:01:28;101710.03;;;-8.93;75.01
74936;BME280;63501;55.570;37.488;2022-12-01T08:03:55;101710.66;;;-8.77;74.64
74936;BME280;63501;55.570;37.488;2022-12-01T08:06:22;101704.88;;;-8.74;74.32
74936;BME280;63501;55.570;37.488;2022-12-01T08:08:48;101713.13;;;-8.69;74.88
74936;BME280;63501;55.570;37.488;2022-12-01T08:11:17;101712.50;;;-8.71;73.90
74936;BME280;63501;55.570;37.488;2022-12-01T08:13:43;101716.84;;;-8.84;74.93
74936;BME280;63501;55.570;37.488;2022-12-01T08:16:11;101716.22;;;-8.99;75.54
74936;BME280;63501;55.570;37.488;2022-12-01T08:18:38;101711.69;;;-9.25;74.97
74936;BME280;63501;55.570;37.488;2022-12-01T08:21:06;101719.50;;;-9.43;75.05
74936;BME280;63501;55.570;37.488;2022-12-01T08:23:32;101717.63;;;-9.49;75.26
74936;BME280;63501;55.570;37.488;2022-12-01T08:26:06;101718.88;;;-9.52;74.91
74936;BME280;63501;55.570;37.488;2022-12-01T08:28:35;101714.34;;;-9.51;75.24
74936;BME280;63501;55.570;37.488;2022-12-01T08:31:12;101713.13;;;-9.42;76.40
74936;BME280;63501;55.570;37.488;2022-12-01T08:33:38;101717.47;;;-9.28;75.71
74936;BME280;63501;55.570;37.488;2022-12-01T08:36:04;101708.00;;;-9.17;75.75
74936;BME280;63501;55.570;37.488;2022-12-01T08:38:31;101705.94;;;-9.09;75.28
74936;BME280;63501;55.570;37.488;2022-12-01T08:41:07;101704.91;;;-8.94;75.63
74936;BME280;63501;55.570;37.488;2022-12-01T08:43:33;101700.72;;;-8.70;74.79
74936;BME280;63501;55.570;37.488;2022-12-01T08:46:03;101685.50;;;-8.12;75.09
74936;BME280;63501;55.570;37.488;2022-12-01T08:48:29;101676.19;;;-7.14;74.32
74936;BME280;63501;55.570;37.488;2022-12-01T08:51:06;101659.25;;;-5.45;74.14
74936;BME280;63501;55.570;37.488;2022-12-01T08:53:33;101642.97;;;-3.64;73.37
74936;BME280;63501;55.570;37.488;2022-12-01T08:56:05;101627.09;;;-2.32;70.79
74936;BME280;63501;55.570;37.488;2022-12-01T08:58:31;101614.81;;;-2.18;67.85
74936;BME280;63501;55.570;37.488;2022-12-01T09:01:04;101625.66;;;-2.79;66.73
74936;BME280;63501;55.570;37.488;2022-12-01T09:03:32;101631.19;;;-3.41;66.10
74936;BME280;63501;55.570;37.488;2022-12-01T09:06:12;101633.41;;;-3.83;66.25
74936;BME280;63501;55.570;37.488;2022-12-01T09:08:37;101638.47;;;-4.15;66.34
74936;BME280;63501;55.570;37.488;2022-12-01T09:11:09;101638.31;;;-4.49;66.29
74936;BME280;63501;55.570;37.488;2022-12-01T09:13:36;101641.16;;;-4.79;66.76
74936;BME280;63501;55.570;37.488;2022-12-01T09:16:09;101641.28;;;-5.09;65.97
74936;BME280;63501;55.570;37.488;2022-12-01T09:18:36;101655.06;;;-5.41;66.58
74936;BME280;63501;55.570;37.488;2022-12-01T09:23:36;101651.97;;;-5.98;67.06
74936;BME280;63501;55.570;37.488;2022-12-01T09:26:02;101654.53;;;-6.03;66.83
74936;BME280;63501;55.570;37.488;2022-12-01T09:28:28;101645.34;;;-5.83;67.39
74936;BME280;63501;55.570;37.488;2022-12-01T09:30:53;101639.59;;;-5.34;67.19
74936;BME280;63501;55.570;37.488;2022-12-01T09:33:19;101642.94;;;-4.96;65.74
74936;BME280;63501;55.570;37.488;2022-12-01T09:35:44;101654.09;;;-4.93;65.54
74936;BME280;63501;55.570;37.488;2022-12-01T09:38:10;101644.56;;;-5.07;66.15
74936;BME280;63501;55.570;37.488;2022-12-01T09:40:39;101651.72;;;-4.78;67.19
74936;BME280;63501;55.570;37.488;2022-12-01T09:43:13;101635.22;;;-3.72;68.74
74936;BME280;63501;55.570;37.488;2022-12-01T09:45:45;101623.50;;;-2.16;68.30
74936;BME280;63501;55.570;37.488;2022-12-01T09:48:25;101610.81;;;-0.92;65.70
74936;BME280;63501;55.570;37.488;2022-12-01T09:50:52;101603.94;;;0.25;64.29
74936;BME280;63501;55.570;37.488;2022-12-01T09:53:21;101589.19;;;1.33;62.07
74936;BME280;63501;55.570;37.488;2022-12-01T09:55:49;101583.31;;;2.25;59.89
74936;BME280;63501;55.570;37.488;2022-12-01T09:58:21;101571.41;;;2.79;57.79
74936;BME280;63501;55.570;37.488;2022-12-01T10:00:50;101570.78;;;2.87;56.25
74936;BME280;63501;55.570;37.488;2022-12-01T10:05:57;101568.69;;;2.45;54.44
74936;BME280;63501;55.570;37.488;2022-12-01T10:08:26;101579.44;;;2.31;53.67
74936;BME280;63501;55.570;37.488;2022-12-01T10:10:57;101575.09;;;2.30;53.66
74936;BME280;63501;55.570;37.488;2022-12-01T10:13:27;101574.22;;;2.69;52.49
74936;BME280;63501;55.570;37.488;2022-12-01T10:18:38;101562.91;;;3.58;50.97
74936;BME280;63501;55.570;37.488;2022-12-01T10:29:48;101593.59;;;1.14;50.90
74936;BME280;63501;55.570;37.488;2022-12-01T10:32:28;101594.44;;;0.23;52.15
74936;BME280;63501;55.570;37.488;2022-12-01T10:34:57;101599.50;;;-0.74;52.82
74936;BME280;63501;55.570;37.488;2022-12-01T10:37:25;101595.00;;;-1.38;53.60
74936;BME280;63501;55.570;37.488;2022-12-01T10:39:53;101601.91;;;-1.84;54.24
74936;BME280;63501;55.570;37.488;2022-12-01T10:44:52;101612.03;;;-2.23;55.23
74936;BME280;63501;55.570;37.488;2022-12-01T10:47:22;101607.22;;;-1.94;55.75
74936;BME280;63501;55.570;37.488;2022-12-01T10:49:48;101605.59;;;-1.68;55.08
74936;BME280;63501;55.570;37.488;2022-12-01T10:52:40;101600.34;;;-1.75;56.20
74936;BME280;63501;55.570;37.488;2022-12-01T10:55:36;101613.13;;;-2.24;56.37
74936;BME280;63501;55.570;37.488;2022-12-01T10:58:15;101617.28;;;-2.77;55.99
74936;BME280;63501;55.570;37.488;2022-12-01T11:00:42;101618.97;;;-3.27;56.50
74936;BME280;63501;55.570;37.488;2022-12-01T11:03:19;101618.53;;;-3.69;57.00
74936;BME280;63501;55.570;37.488;2022-12-01T11:05:50;101625.25;;;-4.00;58.04
74936;BME280;63501;55.570;37.488;2022-12-01T11:10:54;101625.41;;;-4.47;59.14
74936;BME280;63501;55.570;37.488;2022-12-01T11:13:27;101628.03;;;-4.75;59.13
74936;BME280;63501;55.570;37.488;2022-12-01T11:15:58;101628.94;;;-5.05;59.70
74936;BME280;63501;55.570;37.488;2022-12-01T11:18:31;101631.88;;;-5.30;59.78
74936;BME280;63501;55.570;37.488;2022-12-01T11:21:12;101624.84;;;-5.43;60.84
74936;BME280;63501;55.570;37.488;2022-12-01T11:23:49;101630.38;;;-5.26;61.16
74936;BME280;63501;55.570;37.488;2022-12-01T11:26:19;101635.41;;;-4.94;60.90
74936;BME280;63501;55.570;37.488;2022-12-01T11:29:25;101635.41;;;-4.83;61.17
74936;BME280;63501;55.570;37.488;2022-12-01T11:31:52;101612.06;;;-4.89;61.54
74936;BME280;63501;55.570;37.488;2022-12-01T11:36:54;101626.25;;;-5.05;61.44
74936;BME280;63501;55.570;37.488;2022-12-01T11:42:04;101613.34;;;-4.80;62.22
74936;BME280;63501;55.570;37.488;2022-12-01T11:44:31;101622.47;;;-4.57;62.09
74936;BME280;63501;55.570;37.488;2022-12-01T11:47:13;101615.91;;;-4.61;62.45
74936;BME280;63501;55.570;37.488;2022-12-01T11:49:42;101617.69;;;-4.79;62.32
74936;BME280;63501;55.570;37.488;2022-12-01T11:52:32;101616.53;;;-5.06;62.93
74936;BME280;63501;55.570;37.488;2022-12-01T11:57:42;101627.41;;;-5.48;63.53
74936;BME280;63501;55.570;37.488;2022-12-01T12:00:16;101625.91;;;-5.74;63.99
74936;BME280;63501;55.570;37.488;2022-12-01T12:09:45;101636.19;;;-6.43;65.83
74936;BME280;63501;55.570;37.488;2022-12-01T12:20:48;101646.56;;;-7.08;66.70
74936;BME280;63501;55.570;37.488;2022-12-01T12:26:18;101660.53;;;-7.17;67.50
74936;BME280;63501;55.570;37.488;2022-12-01T12:29:21;101656.41;;;-7.20;68.33
74936;BME280;63501;55.570;37.488;2022-12-01T12:45:25;101652.56;;;-7.31;68.49
74936;BME280;63501;55.570;37.488;2022-12-01T12:48:05;101655.06;;;-7.36;67.91
74936;BME280;63501;55.570;37.488;2022-12-01T12:53:48;101650.09;;;-7.57;69.25
74936;BME280;63501;55.570;37.488;2022-12-01T12:56:18;101644.19;;;-7.73;68.98
74936;BME280;63501;55.570;37.488;2022-12-01T12:59:06;101642.59;;;-7.87;69.30
74936;BME280;63501;55.570;37.488;2022-12-01T13:02:13;101648.88;;;-8.00;69.09
74936;BME280;63501;55.570;37.488;2022-12-01T13:04:51;101643.59;;;-8.13;69.04
74936;BME280;63501;55.570;37.488;2022-12-01T13:07:41;101649.81;;;-8.19;70.06
74936;BME280;63501;55.570;37.488;2022-12-01T13:15:57;101646.94;;;-8.31;69.19
74936;BME280;63501;55.570;37.488;2022-12-01T13:20:53;101646.63;;;-8.41;70.76
74936;BME280;63501;55.570;37.488;2022-12-01T13:23:21;101658.59;;;-8.43;69.43
74936;BME280;63501;55.570;37.488;2022-12-01T13:25:50;101659.03;;;-8.46;70.90
74936;BME280;63501;55.570;37.488;2022-12-01T13:28:23;101651.59;;;-8.51;70.13
74936;BME280;63501;55.570;37.488;2022-12-01T13:33:23;101649.13;;;-8.59;71.44
74936;BME280;63501;55.570;37.488;2022-12-01T13:35:52;101650.41;;;-8.62;70.45
74936;BME280;63501;55.570;37.488;2022-12-01T13:38:30;101657.22;;;-8.66;69.98
74936;BME280;63501;55.570;37.488;2022-12-01T13:41:11;101651.47;;;-8.69;70.14
74936;BME280;63501;55.570;37.488;2022-12-01T13:57:27;101640.19;;;-9.18;71.08
74936;BME280;63501;55.570;37.488;2022-12-01T14:02:26;101634.63;;;-9.29;72.76
74936;BME280;63501;55.570;37.488;2022-12-01T14:04:52;101637.69;;;-9.33;71.35
74936;BME280;63501;55.570;37.488;2022-12-01T14:07:36;101636.88;;;-9.33;72.33
74936;BME280;63501;55.570;37.488;2022-12-01T14:12:49;101633.59;;;-9.35;73.51
74936;BME280;63501;55.570;37.488;2022-12-01T14:15:22;101629.47;;;-9.31;73.11
74936;BME280;63501;55.570;37.488;2022-12-01T14:20:50;101619.59;;;-9.30;71.83
74936;BME280;63501;55.570;37.488;2022-12-01T14:25:58;101635.88;;;-9.25;72.19
74936;BME280;63501;55.570;37.488;2022-12-01T14:31:19;101639.38;;;-9.25;73.72
74936;BME280;63501;55.570;37.488;2022-12-01T14:33:49;101634.84;;;-9.24;72.31
74936;BME280;63501;55.570;37.488;2022-12-01T14:50:03;101629.47;;;-9.38;72.41
74936;BME280;63501;55.570;37.488;2022-12-01T14:54:51;101632.78;;;-9.36;72.36
74936;BME280;63501;55.570;37.488;2022-12-01T14:57:23;101629.28;;;-9.36;72.12
74936;BME280;63501;55.570;37.488;2022-12-01T15:02:32;101633.59;;;-9.35;72.50
74936;BME280;63501;55.570;37.488;2022-12-01T15:07:38;101642.03;;;-9.38;73.19
74936;BME280;63501;55.570;37.488;2022-12-01T15:10:04;101640.38;;;-9.39;71.95
74936;BME280;63501;55.570;37.488;2022-12-01T15:12:31;101636.28;;;-9.42;73.54
74936;BME280;63501;55.570;37.488;2022-12-01T15:14:57;101632.97;;;-9.44;72.78
74936;BME280;63501;55.570;37.488;2022-12-01T15:17:31;101642.03;;;-9.45;72.50
74936;BME280;63501;55.570;37.488;2022-12-01T15:19:59;101638.09;;;-9.49;72.38
74936;BME280;63501;55.570;37.488;2022-12-01T15:22:28;101637.06;;;-9.54;72.64
74936;BME280;63501;55.570;37.488;2022-12-01T15:25:07;101638.09;;;-9.62;72.58